La Russell, Missouri
Current Conditions -  °F | °C
As of 4:55 AM on Wednesday 26 Nov 2014 (Local Time) from KHFJ Reporting Station
Overcast Overcast  
Wind Chill: 32°   Ceiling: 11000
Heat Index: 36°   Visibility: 10mi
Dew Point: 27°   Wind: 5mph
Humidity: 70%   Direction: 160°SSE
Pressure: 29.95"   Gusts: NA
Location:  37.14°N, 94.06°W
Report Text: KHFJ 261055Z AUTO 16004KT 10SM OVC110 02/M03 A2995 RMK AO2
Loading
Personal Weather Stations






























Interactive Weather Map New forecast layout! Learn more

10-Day Weather Forecast

Advertisements
Track Severe Weather on mobile